createdAt,value
2017-10-11T00:02:02.543Z,15.20
2017-10-11T00:04:30.043Z,15.20
2017-10-11T00:06:58.311Z,15.20
2017-10-11T00:09:26.560Z,15.20
2017-10-11T00:11:54.054Z,15.20
2017-10-11T00:14:22.300Z,15.20
2017-10-11T00:16:49.768Z,15.20
2017-10-11T00:19:17.280Z,15.20
2017-10-11T00:21:44.825Z,15.20
2017-10-11T00:24:12.315Z,15.20
2017-10-11T00:26:39.940Z,15.20
2017-10-11T00:29:08.180Z,15.10
2017-10-11T00:31:35.680Z,15.10
2017-10-11T00:34:03.228Z,15.10
2017-10-11T00:36:31.471Z,15.10
2017-10-11T00:38:58.945Z,15.10
2017-10-11T00:41:26.448Z,15.00
2017-10-11T00:43:53.928Z,15.00
2017-10-11T00:46:21.432Z,15.00
2017-10-11T00:48:49.715Z,14.90
2017-10-11T00:51:17.989Z,14.90
2017-10-11T00:53:46.224Z,14.80
2017-10-11T00:56:13.712Z,14.80
2017-10-11T00:58:41.942Z,14.70
2017-10-11T01:01:09.411Z,14.70
2017-10-11T01:03:36.931Z,14.70
2017-10-11T01:06:04.403Z,14.60
2017-10-11T01:08:31.885Z,14.60
2017-10-11T01:10:59.392Z,14.60
2017-10-11T01:13:27.627Z,14.60
2017-10-11T01:15:55.103Z,14.50
2017-10-11T01:18:22.611Z,14.50
2017-10-11T01:20:50.100Z,14.60
2017-10-11T01:23:17.633Z,14.60
2017-10-11T01:25:45.157Z,14.60
2017-10-11T01:28:13.394Z,14.60
2017-10-11T01:30:40.871Z,14.60
2017-10-11T01:33:08.364Z,14.60
2017-10-11T01:35:36.611Z,14.70
2017-10-11T01:38:04.088Z,14.70
2017-10-11T01:40:32.345Z,14.70
2017-10-11T01:43:00.600Z,14.80
2017-10-11T01:45:28.071Z,14.80
2017-10-11T01:47:55.576Z,14.80
2017-10-11T01:50:23.047Z,14.80
2017-10-11T01:52:50.517Z,14.80
2017-10-11T01:55:18.056Z,14.80
2017-10-11T01:57:45.527Z,14.80
2017-10-11T02:00:13.024Z,14.80
2017-10-11T02:02:40.519Z,14.90
2017-10-11T02:05:07.985Z,14.90
2017-10-11T02:07:35.466Z,14.90
2017-10-11T02:10:02.960Z,14.90
2017-10-11T02:12:30.429Z,14.90
2017-10-11T02:14:58.684Z,15.00
2017-10-11T02:17:26.168Z,14.90
2017-10-11T02:19:54.415Z,15.00
2017-10-11T02:22:21.892Z,14.90
2017-10-11T02:24:50.180Z,14.90
2017-10-11T02:27:18.416Z,14.90
2017-10-11T02:29:45.887Z,14.90
2017-10-11T02:32:13.383Z,14.90
2017-10-11T02:34:41.628Z,14.90
2017-10-11T02:37:09.868Z,14.80
2017-10-11T02:39:37.383Z,14.80
2017-10-11T02:42:05.621Z,14.80
2017-10-11T02:44:33.148Z,14.80
2017-10-11T02:47:00.619Z,14.80
2017-10-11T02:49:28.091Z,14.80
2017-10-11T02:51:55.584Z,14.80
2017-10-11T02:54:23.823Z,14.60
2017-10-11T02:56:51.351Z,14.60
2017-10-11T02:59:18.824Z,14.60
2017-10-11T03:01:46.304Z,14.60
2017-10-11T03:04:13.791Z,14.50
2017-10-11T03:06:41.293Z,14.50
2017-10-11T07:36:34.641Z,14.70
2017-10-11T07:39:02.112Z,14.70
2017-10-11T07:41:29.592Z,14.80
2017-10-11T07:43:57.088Z,14.90
2017-10-11T07:46:24.568Z,14.90
2017-10-11T07:48:52.068Z,15.00
2017-10-11T07:51:20.309Z,15.10
2017-10-11T07:53:47.781Z,15.10
2017-10-11T07:56:16.040Z,15.30
2017-10-11T07:58:43.511Z,15.30
2017-10-11T08:01:11.042Z,15.40
2017-10-11T08:03:38.535Z,15.50
2017-10-11T08:06:06.775Z,15.60
2017-10-11T08:08:34.260Z,15.60
2017-10-11T08:11:01.732Z,15.70
2017-10-11T08:13:29.985Z,15.80
2017-10-11T08:15:57.463Z,15.80
2017-10-11T08:18:24.959Z,15.80
2017-10-11T08:20:52.451Z,15.90
2017-10-11T08:23:19.931Z,15.90
2017-10-11T08:25:47.603Z,15.90
2017-10-11T08:28:15.839Z,16.00
2017-10-11T08:30:43.321Z,15.90
2017-10-11T08:33:10.812Z,15.90
2017-10-11T08:35:39.051Z,16.00
2017-10-11T08:38:06.647Z,16.00
2017-10-11T08:40:34.124Z,16.00
2017-10-11T08:43:01.608Z,16.00
2017-10-11T08:45:29.100Z,16.00
2017-10-11T08:47:56.572Z,16.00
2017-10-11T08:50:24.839Z,16.00
2017-10-11T08:52:53.102Z,16.10
2017-10-11T08:55:22.071Z,16.10
2017-10-11T08:57:49.585Z,16.00
2017-10-11T09:00:17.819Z,16.10
2017-10-11T09:02:45.312Z,16.10
2017-10-11T09:05:13.553Z,16.10
2017-10-11T09:07:41.049Z,16.10
2017-10-11T09:10:09.356Z,16.10
2017-10-11T09:12:36.913Z,16.10
2017-10-11T09:15:04.427Z,16.10
2017-10-11T09:17:31.891Z,16.20
2017-10-11T09:19:59.406Z,16.20
2017-10-11T09:22:26.947Z,16.10
2017-10-11T09:24:54.506Z,16.20
2017-10-11T09:27:21.995Z,16.20
2017-10-11T09:29:49.480Z,16.20
2017-10-11T09:32:16.964Z,16.30
2017-10-11T09:34:44.470Z,16.30
2017-10-11T09:37:11.959Z,16.30
2017-10-11T09:39:40.245Z,16.30
2017-10-11T09:42:08.485Z,16.40
2017-10-11T09:44:35.999Z,16.30
2017-10-11T09:47:03.892Z,16.40
2017-10-11T09:49:31.369Z,16.40
2017-10-11T09:51:59.068Z,16.40
2017-10-11T09:54:27.331Z,16.50
2017-10-11T09:56:55.583Z,16.50
2017-10-11T09:59:23.076Z,16.50
2017-10-11T10:01:51.323Z,16.50
2017-10-11T10:04:18.820Z,16.40
2017-10-11T10:06:47.069Z,16.40
2017-10-11T10:09:15.310Z,16.40
2017-10-11T10:11:42.846Z,16.40
2017-10-11T10:14:10.352Z,16.50
2017-10-11T10:16:37.852Z,16.40
2017-10-11T10:19:06.105Z,16.50
2017-10-11T10:21:33.666Z,16.50
2017-10-11T10:24:01.151Z,16.40
2017-10-11T10:26:29.399Z,16.40
2017-10-11T10:28:56.897Z,16.40
2017-10-11T10:31:24.379Z,16.40
2017-10-11T10:33:51.859Z,16.40
2017-10-11T10:36:19.347Z,16.40
2017-10-11T10:38:47.612Z,16.30
2017-10-11T10:41:15.875Z,16.30
2017-10-11T10:43:43.366Z,16.30
2017-10-11T10:46:11.605Z,16.30
2017-10-11T10:48:39.094Z,16.30
2017-10-11T10:51:07.348Z,16.30
2017-10-11T10:53:36.351Z,16.30
2017-10-11T10:56:03.833Z,16.30
2017-10-11T10:58:32.084Z,16.40
2017-10-11T11:00:59.581Z,16.40
2017-10-11T11:03:27.067Z,16.40
2017-10-11T11:05:54.555Z,16.40
2017-10-11T11:08:23.539Z,16.40
2017-10-11T11:10:52.524Z,16.40
2017-10-11T11:13:20.041Z,16.40
2017-10-11T11:15:47.519Z,16.40
2017-10-11T11:18:15.035Z,16.40
2017-10-11T11:20:43.277Z,16.50
2017-10-11T11:23:10.760Z,16.50
2017-10-11T11:25:39.020Z,16.50
2017-10-11T11:28:07.287Z,16.50
2017-10-11T11:30:34.791Z,16.50
2017-10-11T11:33:03.036Z,16.50
2017-10-11T11:35:30.516Z,16.50
2017-10-11T11:37:58.776Z,16.50
2017-10-11T11:40:27.016Z,16.50
2017-10-11T11:42:54.532Z,16.50
2017-10-11T11:45:22.780Z,16.50
2017-10-11T11:47:51.769Z,16.50
2017-10-11T11:50:19.263Z,16.50
2017-10-11T11:52:47.504Z,16.50
2017-10-11T11:55:16.512Z,16.50
2017-10-11T11:57:43.990Z,16.50
2017-10-11T12:00:12.228Z,16.50
2017-10-11T12:02:39.711Z,16.50
2017-10-11T12:05:07.958Z,16.60
2017-10-11T12:07:35.443Z,16.50
2017-10-11T12:10:03.705Z,16.50
2017-10-11T12:12:31.184Z,16.50
2017-10-11T12:14:59.434Z,16.50
2017-10-11T12:17:26.923Z,16.50
2017-10-11T12:19:55.202Z,16.60
2017-10-11T12:22:23.443Z,16.60
2017-10-11T12:24:50.916Z,16.60
2017-10-11T12:27:18.433Z,16.70
2017-10-11T12:29:45.911Z,16.60
2017-10-11T12:32:13.410Z,16.60
2017-10-11T12:34:41.643Z,16.60
2017-10-11T12:37:09.117Z,16.60
2017-10-11T12:39:37.379Z,16.60
2017-10-11T12:42:04.869Z,16.60
2017-10-11T12:44:32.404Z,16.60
2017-10-11T12:46:59.880Z,16.60
2017-10-11T12:49:27.392Z,16.70
2017-10-11T12:51:54.908Z,16.70
2017-10-11T12:54:23.151Z,16.70
2017-10-11T12:56:50.649Z,16.70
2017-10-11T12:59:18.929Z,16.80
2017-10-11T13:01:47.333Z,16.80
2017-10-11T13:04:14.823Z,16.70
2017-10-11T13:06:42.320Z,16.80
2017-10-11T13:09:10.587Z,16.80
2017-10-11T13:11:38.850Z,16.80
2017-10-11T13:14:07.104Z,16.70
2017-10-11T13:16:34.606Z,16.70
2017-10-11T13:19:02.848Z,16.80
2017-10-11T13:21:30.350Z,16.70
2017-10-11T13:23:58.595Z,16.80
2017-10-11T13:26:26.839Z,16.80
2017-10-11T13:28:54.327Z,16.80
2017-10-11T13:31:22.571Z,16.80
2017-10-11T13:33:50.082Z,16.80
2017-10-11T13:36:19.399Z,16.80
2017-10-11T13:38:46.988Z,16.70
2017-10-11T13:41:14.538Z,16.80
2017-10-11T13:43:42.007Z,16.80
2017-10-11T13:46:09.524Z,16.90
2017-10-11T13:48:37.876Z,16.90
2017-10-11T13:51:05.364Z,16.90
2017-10-11T13:53:33.615Z,16.90
2017-10-11T13:56:01.094Z,16.90
2017-10-11T13:58:29.403Z,17.00
2017-10-11T14:00:56.871Z,17.00
2017-10-11T14:03:24.347Z,17.00
2017-10-11T14:05:51.868Z,17.00
2017-10-11T14:08:19.344Z,17.10
2017-10-11T14:10:46.860Z,17.20
2017-10-11T14:13:15.097Z,17.40
2017-10-11T14:15:42.576Z,17.40
2017-10-11T14:18:10.084Z,17.40
2017-10-11T14:20:37.558Z,17.50
2017-10-11T14:23:05.044Z,17.50
2017-10-11T14:25:32.520Z,17.60
2017-10-11T14:28:00.778Z,17.60
2017-10-11T14:30:28.267Z,17.50
2017-10-11T14:32:56.508Z,17.60
2017-10-11T14:35:24.032Z,17.60
2017-10-11T14:37:51.512Z,17.70
2017-10-11T14:40:18.983Z,17.70
2017-10-11T14:42:46.473Z,17.80
2017-10-11T14:45:14.712Z,17.80
2017-10-11T14:47:42.212Z,17.70
2017-10-11T14:50:10.581Z,17.90
2017-10-11T14:52:39.016Z,17.90
2017-10-11T14:55:06.503Z,17.90
2017-10-11T14:57:33.989Z,17.90
2017-10-11T15:00:02.247Z,17.80
2017-10-11T15:02:29.791Z,17.80
2017-10-11T15:04:57.271Z,17.80
2017-10-11T15:07:24.873Z,17.80
2017-10-11T15:09:52.375Z,17.80
2017-10-11T15:12:19.855Z,17.80
2017-10-11T15:14:48.108Z,17.70
2017-10-11T15:17:15.603Z,17.70
2017-10-11T15:19:43.843Z,17.70
2017-10-11T15:22:11.324Z,17.60
2017-10-11T15:24:39.636Z,17.60
2017-10-11T15:27:07.125Z,17.60
2017-10-11T15:29:34.595Z,17.50
2017-10-11T15:32:02.115Z,17.50
2017-10-11T15:34:29.599Z,17.50
2017-10-11T15:36:57.075Z,17.50
2017-10-11T15:39:25.379Z,17.50
2017-10-11T15:41:53.623Z,17.40
2017-10-11T15:44:21.139Z,17.40
2017-10-11T15:46:48.672Z,17.40
2017-10-11T15:49:16.907Z,17.40
2017-10-11T15:51:44.381Z,17.40
2017-10-11T15:54:12.627Z,17.40
2017-10-11T15:56:40.107Z,17.40
2017-10-11T15:59:07.868Z,17.40
2017-10-11T16:01:35.397Z,17.40
2017-10-11T16:04:02.877Z,17.40
2017-10-11T16:06:30.372Z,17.40
2017-10-11T16:08:58.632Z,17.40
2017-10-11T16:11:26.111Z,17.40
2017-10-11T16:13:54.356Z,17.40
2017-10-11T16:16:21.863Z,17.30
2017-10-11T16:18:49.380Z,17.40
2017-10-11T16:21:16.850Z,17.30
2017-10-11T16:23:44.335Z,17.30
2017-10-11T16:26:11.814Z,17.30
2017-10-11T16:28:39.340Z,17.30
2017-10-11T16:31:07.608Z,17.30
2017-10-11T16:33:35.889Z,17.30
2017-10-11T16:36:04.165Z,17.30
2017-10-11T16:38:32.420Z,17.30
2017-10-11T16:41:01.429Z,17.30
2017-10-11T16:43:28.956Z,17.30
2017-10-11T16:45:56.489Z,17.30
2017-10-11T16:48:23.979Z,17.30
2017-10-11T16:50:51.458Z,17.30
2017-10-11T16:53:18.967Z,17.30
2017-10-11T16:55:46.496Z,17.30
2017-10-11T16:58:14.747Z,17.30
2017-10-11T17:00:42.459Z,17.30
2017-10-11T17:03:09.948Z,17.20
2017-10-11T17:05:37.514Z,17.20
2017-10-11T17:08:04.999Z,17.20
2017-10-11T17:10:33.258Z,17.20
2017-10-11T17:13:00.748Z,17.20
2017-10-11T17:15:29.007Z,17.00
2017-10-11T17:17:56.483Z,17.10
2017-10-11T17:20:24.765Z,17.10
2017-10-11T17:22:53.010Z,17.10
2017-10-11T17:25:20.527Z,17.00
2017-10-11T17:27:48.005Z,17.10
2017-10-11T17:30:15.490Z,17.10
2017-10-11T17:32:43.058Z,17.10
2017-10-11T17:35:11.305Z,17.00
2017-10-11T17:37:38.801Z,17.00
2017-10-11T17:40:07.040Z,17.00
2017-10-11T17:42:34.512Z,17.00
2017-10-11T17:45:02.003Z,17.00
2017-10-11T17:47:30.266Z,17.00
2017-10-11T17:49:58.558Z,17.00
2017-10-11T17:52:26.799Z,17.00
2017-10-11T17:54:54.312Z,17.00
2017-10-11T17:57:21.795Z,16.90
2017-10-11T17:59:49.277Z,16.90
2017-10-11T18:02:17.556Z,16.90
2017-10-11T18:04:45.028Z,16.90
2017-10-11T18:07:13.285Z,16.80
2017-10-11T18:09:40.775Z,16.80
2017-10-11T18:12:09.040Z,16.80
2017-10-11T18:14:37.314Z,16.80
2017-10-11T18:17:05.564Z,16.80
2017-10-11T18:19:33.055Z,16.80
2017-10-11T18:22:01.313Z,16.70
2017-10-11T18:24:28.791Z,16.70
2017-10-11T18:26:56.293Z,16.70
2017-10-11T18:29:23.765Z,16.70
2017-10-11T18:31:51.297Z,16.70
2017-10-11T18:34:18.785Z,16.70
2017-10-11T18:36:46.288Z,16.70
2017-10-11T18:39:14.758Z,16.70
2017-10-11T18:41:43.014Z,16.70
2017-10-11T18:44:10.493Z,16.60
2017-10-11T18:46:38.772Z,16.60
2017-10-11T18:49:07.041Z,16.70
2017-10-11T18:51:34.582Z,16.60
2017-10-11T18:54:02.068Z,16.60
2017-10-11T18:56:30.320Z,16.60
2017-10-11T18:58:57.833Z,16.60
2017-10-11T19:01:25.315Z,16.60
2017-10-11T19:03:52.810Z,16.60
2017-10-11T19:06:20.298Z,16.60
2017-10-11T19:08:47.771Z,16.60
2017-10-11T19:11:15.275Z,16.60
2017-10-11T19:13:42.747Z,16.50
2017-10-11T19:16:10.243Z,16.50
2017-10-11T19:18:37.759Z,16.40
2017-10-11T19:21:06.003Z,16.30
2017-10-11T19:23:33.510Z,16.30
2017-10-11T19:26:01.768Z,16.20
2017-10-11T19:28:30.268Z,16.20
2017-10-11T19:30:58.520Z,16.20
2017-10-11T19:33:27.517Z,16.20
2017-10-11T19:35:55.033Z,16.20
2017-10-11T19:38:22.534Z,16.10
2017-10-11T19:40:51.577Z,16.00
2017-10-11T19:43:19.045Z,16.10
2017-10-11T19:45:46.564Z,16.00
2017-10-11T19:48:14.877Z,16.00
2017-10-11T19:50:42.383Z,16.00
2017-10-11T19:53:11.391Z,15.90
2017-10-11T19:55:39.672Z,15.90
2017-10-11T19:58:07.914Z,15.90
2017-10-11T20:00:36.014Z,15.90
2017-10-11T20:03:04.274Z,15.80
2017-10-11T20:05:31.772Z,15.80
2017-10-11T20:07:59.346Z,15.80
2017-10-11T20:10:26.847Z,15.80
2017-10-11T20:12:54.349Z,15.80
2017-10-11T20:15:21.853Z,15.80
2017-10-11T20:17:49.381Z,15.80
2017-10-11T20:20:16.891Z,15.80
2017-10-11T20:22:45.158Z,15.90
2017-10-11T20:25:12.652Z,15.90
2017-10-11T20:27:40.885Z,15.80
2017-10-11T20:30:08.582Z,15.80
2017-10-11T20:32:36.815Z,15.90
2017-10-11T20:35:04.319Z,15.90
2017-10-11T20:37:32.582Z,15.90
2017-10-11T20:40:00.057Z,15.90
2017-10-11T20:42:28.324Z,16.00
2017-10-11T20:44:56.615Z,16.00
2017-10-11T20:47:24.894Z,16.00
2017-10-11T20:49:53.156Z,16.10
2017-10-11T20:52:21.405Z,16.10
2017-10-11T20:54:48.902Z,16.10
2017-10-11T20:57:17.148Z,16.10
2017-10-11T20:59:45.396Z,16.20
2017-10-11T21:02:12.940Z,16.20
2017-10-11T21:04:40.416Z,16.20
2017-10-11T21:07:07.919Z,16.20
2017-10-11T21:09:36.207Z,16.20
2017-10-11T21:12:04.497Z,16.10
2017-10-11T21:14:32.005Z,16.10
2017-10-11T21:16:59.499Z,16.10
2017-10-11T21:19:27.755Z,16.10
2017-10-11T21:21:55.243Z,16.10
2017-10-11T21:24:23.478Z,16.10
2017-10-11T21:26:51.020Z,16.10
2017-10-11T21:29:18.498Z,16.10
2017-10-11T21:31:45.992Z,16.10
2017-10-11T21:34:14.250Z,16.10
2017-10-11T21:36:42.524Z,16.10
2017-10-11T21:39:11.695Z,16.10
2017-10-11T21:41:39.207Z,16.10
2017-10-11T21:44:06.700Z,16.10
2017-10-11T21:46:34.230Z,16.00
2017-10-11T21:49:01.755Z,16.00
2017-10-11T21:51:30.017Z,16.00
2017-10-11T21:53:57.515Z,16.00
2017-10-11T21:56:25.790Z,16.00
2017-10-11T21:58:53.319Z,16.00
2017-10-11T22:01:20.801Z,15.90
2017-10-11T22:03:49.064Z,15.90
2017-10-11T22:06:17.307Z,15.90
2017-10-11T22:08:44.819Z,15.90
2017-10-11T22:11:13.061Z,15.90
2017-10-11T22:13:41.328Z,15.90
2017-10-11T22:16:08.817Z,15.90
2017-10-11T22:18:37.083Z,15.80
2017-10-11T22:21:04.575Z,15.80
2017-10-11T22:23:32.069Z,15.80
2017-10-11T22:25:59.547Z,15.70
2017-10-11T22:28:27.037Z,15.70
2017-10-11T22:30:55.271Z,15.70
2017-10-11T22:33:22.758Z,15.70
2017-10-11T22:35:51.007Z,15.80
2017-10-11T22:38:18.491Z,15.80
2017-10-11T22:40:47.494Z,15.80
2017-10-11T22:43:15.746Z,15.80
2017-10-11T22:45:43.255Z,15.80
2017-10-11T22:48:10.732Z,15.80
2017-10-11T22:50:38.231Z,15.70
2017-10-11T22:53:07.357Z,15.60
2017-10-11T22:55:34.831Z,15.60
2017-10-11T22:58:02.325Z,15.60
2017-10-11T23:00:29.791Z,15.50
2017-10-11T23:02:57.269Z,15.50
2017-10-11T23:05:25.542Z,15.50
2017-10-11T23:07:53.020Z,15.40
2017-10-11T23:10:21.301Z,15.40
2017-10-11T23:12:48.770Z,15.40
2017-10-11T23:15:17.032Z,15.30
2017-10-11T23:17:45.283Z,15.30
2017-10-11T23:20:14.275Z,15.40
2017-10-11T23:22:42.663Z,15.40
2017-10-11T23:25:10.906Z,15.40
2017-10-11T23:27:38.391Z,15.40
2017-10-11T23:30:06.650Z,15.50
2017-10-11T23:32:34.132Z,15.40
2017-10-11T23:35:02.422Z,15.50
2017-10-11T23:37:30.674Z,15.50
2017-10-11T23:39:58.916Z,15.50
2017-10-11T23:42:26.405Z,15.50
2017-10-11T23:44:53.879Z,15.50
2017-10-11T23:47:22.147Z,15.50
2017-10-11T23:49:50.384Z,15.60
2017-10-11T23:52:17.875Z,15.60
2017-10-11T23:54:46.897Z,15.60
2017-10-11T23:57:15.137Z,15.60
2017-10-11T23:59:42.622Z,15.60
